sensor_id;sensor_type;location;lat;lon;timestamp;P1;durP1;ratioP1;P2;durP2;ratioP2
59263;SDS011;45030;42.720;23.344;2023-05-29T00:01:08;4.57;;;2.42;;
59263;SDS011;45030;42.720;23.344;2023-05-29T00:03:34;4.28;;;2.72;;
59263;SDS011;45030;42.720;23.344;2023-05-29T00:06:01;4.80;;;2.58;;
59263;SDS011;45030;42.720;23.344;2023-05-29T00:08:26;5.13;;;2.67;;
59263;SDS011;45030;42.720;23.344;2023-05-29T00:10:51;5.65;;;3.03;;
59263;SDS011;45030;42.720;23.344;2023-05-29T00:13:17;6.35;;;2.92;;
59263;SDS011;45030;42.720;23.344;2023-05-29T00:15:42;5.32;;;2.60;;
59263;SDS011;45030;42.720;23.344;2023-05-29T00:18:07;5.38;;;3.08;;
59263;SDS011;45030;42.720;23.344;2023-05-29T00:20:32;7.57;;;3.70;;
59263;SDS011;45030;42.720;23.344;2023-05-29T00:22:59;14.50;;;6.03;;
59263;SDS011;45030;42.720;23.344;2023-05-29T00:25:24;15.35;;;6.88;;
59263;SDS011;45030;42.720;23.344;2023-05-29T00:27:49;18.33;;;7.25;;
59263;SDS011;45030;42.720;23.344;2023-05-29T00:30:14;17.85;;;6.25;;
59263;SDS011;45030;42.720;23.344;2023-05-29T00:32:40;11.02;;;6.20;;
59263;SDS011;45030;42.720;23.344;2023-05-29T00:35:05;13.27;;;6.70;;
59263;SDS011;45030;42.720;23.344;2023-05-29T00:37:31;14.20;;;6.68;;
59263;SDS011;45030;42.720;23.344;2023-05-29T00:39:56;12.48;;;6.30;;
59263;SDS011;45030;42.720;23.344;2023-05-29T00:42:21;11.07;;;5.50;;
59263;SDS011;45030;42.720;23.344;2023-05-29T00:44:47;11.00;;;5.75;;
59263;SDS011;45030;42.720;23.344;2023-05-29T00:47:12;9.25;;;5.55;;
59263;SDS011;45030;42.720;23.344;2023-05-29T00:49:37;9.60;;;6.22;;
59263;SDS011;45030;42.720;23.344;2023-05-29T00:52:03;7.32;;;4.55;;
59263;SDS011;45030;42.720;23.344;2023-05-29T00:54:31;10.88;;;4.90;;
59263;SDS011;45030;42.720;23.344;2023-05-29T00:56:57;9.20;;;5.15;;
59263;SDS011;45030;42.720;23.344;2023-05-29T00:59:23;9.98;;;5.15;;
59263;SDS011;45030;42.720;23.344;2023-05-29T01:01:50;5.18;;;3.25;;
59263;SDS011;45030;42.720;23.344;2023-05-29T01:04:16;6.50;;;3.40;;
59263;SDS011;45030;42.720;23.344;2023-05-29T01:06:41;10.40;;;4.03;;
59263;SDS011;45030;42.720;23.344;2023-05-29T01:09:07;7.75;;;4.32;;
59263;SDS011;45030;42.720;23.344;2023-05-29T01:11:37;6.90;;;3.75;;
59263;SDS011;45030;42.720;23.344;2023-05-29T01:19:29;8.77;;;4.65;;
59263;SDS011;45030;42.720;23.344;2023-05-29T01:21:54;10.32;;;4.60;;
59263;SDS011;45030;42.720;23.344;2023-05-29T01:27:00;9.05;;;4.50;;
59263;SDS011;45030;42.720;23.344;2023-05-29T01:29:26;8.20;;;4.55;;
59263;SDS011;45030;42.720;23.344;2023-05-29T01:31:52;7.47;;;4.32;;
59263;SDS011;45030;42.720;23.344;2023-05-29T01:34:19;6.97;;;4.75;;
59263;SDS011;45030;42.720;23.344;2023-05-29T01:36:44;6.88;;;4.45;;
59263;SDS011;45030;42.720;23.344;2023-05-29T01:39:11;10.13;;;5.03;;
59263;SDS011;45030;42.720;23.344;2023-05-29T01:41:37;9.23;;;3.72;;
59263;SDS011;45030;42.720;23.344;2023-05-29T01:44:04;5.47;;;3.55;;
59263;SDS011;45030;42.720;23.344;2023-05-29T01:46:33;4.95;;;3.25;;
59263;SDS011;45030;42.720;23.344;2023-05-29T01:49:00;6.53;;;3.63;;
59263;SDS011;45030;42.720;23.344;2023-05-29T01:51:25;6.72;;;3.85;;
59263;SDS011;45030;42.720;23.344;2023-05-29T01:53:50;7.13;;;3.80;;
59263;SDS011;45030;42.720;23.344;2023-05-29T01:56:16;8.82;;;3.60;;
59263;SDS011;45030;42.720;23.344;2023-05-29T01:58:41;7.70;;;3.95;;
59263;SDS011;45030;42.720;23.344;2023-05-29T02:01:07;8.15;;;3.88;;
59263;SDS011;45030;42.720;23.344;2023-05-29T02:03:33;6.55;;;4.00;;
59263;SDS011;45030;42.720;23.344;2023-05-29T02:05:58;6.40;;;3.42;;
59263;SDS011;45030;42.720;23.344;2023-05-29T02:08:24;6.18;;;4.05;;
59263;SDS011;45030;42.720;23.344;2023-05-29T02:10:49;8.35;;;4.38;;
59263;SDS011;45030;42.720;23.344;2023-05-29T02:13:15;6.63;;;4.03;;
59263;SDS011;45030;42.720;23.344;2023-05-29T02:15:41;7.82;;;4.43;;
59263;SDS011;45030;42.720;23.344;2023-05-29T02:18:09;5.30;;;3.63;;
59263;SDS011;45030;42.720;23.344;2023-05-29T02:20:36;8.07;;;4.05;;
59263;SDS011;45030;42.720;23.344;2023-05-29T02:23:01;5.72;;;3.38;;
59263;SDS011;45030;42.720;23.344;2023-05-29T02:25:26;9.40;;;4.28;;
59263;SDS011;45030;42.720;23.344;2023-05-29T02:27:51;7.28;;;4.60;;
59263;SDS011;45030;42.720;23.344;2023-05-29T02:30:16;10.77;;;4.95;;
59263;SDS011;45030;42.720;23.344;2023-05-29T02:32:42;9.45;;;5.03;;
59263;SDS011;45030;42.720;23.344;2023-05-29T02:35:07;8.73;;;5.22;;
59263;SDS011;45030;42.720;23.344;2023-05-29T02:37:32;8.48;;;4.85;;
59263;SDS011;45030;42.720;23.344;2023-05-29T02:39:58;7.20;;;4.65;;
59263;SDS011;45030;42.720;23.344;2023-05-29T02:42:23;8.07;;;4.80;;
59263;SDS011;45030;42.720;23.344;2023-05-29T02:44:48;6.97;;;3.78;;
59263;SDS011;45030;42.720;23.344;2023-05-29T02:47:13;6.93;;;3.88;;
59263;SDS011;45030;42.720;23.344;2023-05-29T02:49:39;7.15;;;4.20;;
59263;SDS011;45030;42.720;23.344;2023-05-29T02:52:04;7.38;;;3.85;;
59263;SDS011;45030;42.720;23.344;2023-05-29T02:54:29;9.95;;;4.47;;
59263;SDS011;45030;42.720;23.344;2023-05-29T02:56:55;8.70;;;4.32;;
59263;SDS011;45030;42.720;23.344;2023-05-29T02:59:20;8.63;;;4.00;;
59263;SDS011;45030;42.720;23.344;2023-05-29T03:01:45;7.13;;;4.05;;
59263;SDS011;45030;42.720;23.344;2023-05-29T03:04:12;8.80;;;4.95;;
59263;SDS011;45030;42.720;23.344;2023-05-29T03:06:37;12.13;;;5.45;;
59263;SDS011;45030;42.720;23.344;2023-05-29T03:09:03;11.15;;;5.82;;
59263;SDS011;45030;42.720;23.344;2023-05-29T03:11:30;11.88;;;6.00;;
59263;SDS011;45030;42.720;23.344;2023-05-29T03:13:55;8.95;;;5.90;;
59263;SDS011;45030;42.720;23.344;2023-05-29T03:16:21;8.25;;;4.47;;
59263;SDS011;45030;42.720;23.344;2023-05-29T03:18:46;9.13;;;4.72;;
59263;SDS011;45030;42.720;23.344;2023-05-29T03:21:12;9.95;;;5.10;;
59263;SDS011;45030;42.720;23.344;2023-05-29T03:23:37;6.70;;;4.60;;
59263;SDS011;45030;42.720;23.344;2023-05-29T03:26:02;9.38;;;5.05;;
59263;SDS011;45030;42.720;23.344;2023-05-29T03:28:28;7.72;;;4.40;;
59263;SDS011;45030;42.720;23.344;2023-05-29T03:30:54;7.07;;;4.20;;
59263;SDS011;45030;42.720;23.344;2023-05-29T03:33:19;6.22;;;3.65;;
59263;SDS011;45030;42.720;23.344;2023-05-29T03:35:44;8.68;;;3.75;;
59263;SDS011;45030;42.720;23.344;2023-05-29T03:38:10;7.97;;;3.97;;
59263;SDS011;45030;42.720;23.344;2023-05-29T03:40:35;16.13;;;7.57;;
59263;SDS011;45030;42.720;23.344;2023-05-29T03:43:00;9.02;;;5.95;;
59263;SDS011;45030;42.720;23.344;2023-05-29T03:45:25;14.70;;;8.93;;
59263;SDS011;45030;42.720;23.344;2023-05-29T03:47:51;18.02;;;9.02;;
59263;SDS011;45030;42.720;23.344;2023-05-29T03:50:16;16.60;;;8.63;;
59263;SDS011;45030;42.720;23.344;2023-05-29T03:52:42;23.27;;;9.88;;
59263;SDS011;45030;42.720;23.344;2023-05-29T03:55:08;35.20;;;13.75;;
59263;SDS011;45030;42.720;23.344;2023-05-29T03:57:34;21.88;;;10.75;;
59263;SDS011;45030;42.720;23.344;2023-05-29T03:59:59;38.88;;;16.13;;
59263;SDS011;45030;42.720;23.344;2023-05-29T04:02:25;19.92;;;8.98;;
59263;SDS011;45030;42.720;23.344;2023-05-29T04:04:50;27.55;;;12.20;;
59263;SDS011;45030;42.720;23.344;2023-05-29T04:07:17;30.23;;;11.35;;
59263;SDS011;45030;42.720;23.344;2023-05-29T04:09:43;29.13;;;12.50;;
59263;SDS011;45030;42.720;23.344;2023-05-29T04:12:09;34.83;;;13.48;;
59263;SDS011;45030;42.720;23.344;2023-05-29T04:14:34;26.55;;;9.65;;
59263;SDS011;45030;42.720;23.344;2023-05-29T04:16:59;21.77;;;10.30;;
59263;SDS011;45030;42.720;23.344;2023-05-29T04:19:24;23.70;;;10.85;;
59263;SDS011;45030;42.720;23.344;2023-05-29T04:21:50;24.23;;;10.00;;
59263;SDS011;45030;42.720;23.344;2023-05-29T04:24:15;20.15;;;9.05;;
59263;SDS011;45030;42.720;23.344;2023-05-29T04:26:40;14.73;;;6.30;;
59263;SDS011;45030;42.720;23.344;2023-05-29T04:29:06;11.30;;;5.40;;
59263;SDS011;45030;42.720;23.344;2023-05-29T04:31:31;13.85;;;5.68;;
59263;SDS011;45030;42.720;23.344;2023-05-29T04:33:57;11.93;;;4.68;;
59263;SDS011;45030;42.720;23.344;2023-05-29T04:36:23;8.52;;;4.80;;
59263;SDS011;45030;42.720;23.344;2023-05-29T04:38:50;8.38;;;4.47;;
59263;SDS011;45030;42.720;23.344;2023-05-29T04:41:16;8.98;;;4.25;;
59263;SDS011;45030;42.720;23.344;2023-05-29T04:43:41;8.18;;;3.75;;
59263;SDS011;45030;42.720;23.344;2023-05-29T04:46:07;16.00;;;4.60;;
59263;SDS011;45030;42.720;23.344;2023-05-29T04:48:37;6.82;;;3.50;;
59263;SDS011;45030;42.720;23.344;2023-05-29T04:51:05;9.10;;;4.50;;
59263;SDS011;45030;42.720;23.344;2023-05-29T04:53:31;9.55;;;4.40;;
59263;SDS011;45030;42.720;23.344;2023-05-29T04:55:56;9.48;;;4.47;;
59263;SDS011;45030;42.720;23.344;2023-05-29T04:58:21;9.75;;;4.80;;
59263;SDS011;45030;42.720;23.344;2023-05-29T05:00:46;8.15;;;4.18;;
59263;SDS011;45030;42.720;23.344;2023-05-29T05:03:14;8.85;;;4.88;;
59263;SDS011;45030;42.720;23.344;2023-05-29T05:05:41;11.85;;;3.63;;
59263;SDS011;45030;42.720;23.344;2023-05-29T05:08:08;8.57;;;4.35;;
59263;SDS011;45030;42.720;23.344;2023-05-29T05:10:33;7.00;;;4.72;;
59263;SDS011;45030;42.720;23.344;2023-05-29T05:12:59;6.07;;;3.60;;
59263;SDS011;45030;42.720;23.344;2023-05-29T05:15:25;7.65;;;3.60;;
59263;SDS011;45030;42.720;23.344;2023-05-29T05:17:50;7.97;;;3.67;;
59263;SDS011;45030;42.720;23.344;2023-05-29T05:20:16;7.47;;;4.47;;
59263;SDS011;45030;42.720;23.344;2023-05-29T05:22:41;12.38;;;4.05;;
59263;SDS011;45030;42.720;23.344;2023-05-29T05:25:06;8.27;;;4.15;;
59263;SDS011;45030;42.720;23.344;2023-05-29T05:27:33;7.15;;;3.67;;
59263;SDS011;45030;42.720;23.344;2023-05-29T05:29:58;9.07;;;4.15;;
59263;SDS011;45030;42.720;23.344;2023-05-29T05:32:23;5.07;;;3.30;;
59263;SDS011;45030;42.720;23.344;2023-05-29T05:34:49;9.45;;;4.15;;
59263;SDS011;45030;42.720;23.344;2023-05-29T05:37:14;5.30;;;3.05;;
59263;SDS011;45030;42.720;23.344;2023-05-29T05:39:39;6.00;;;3.97;;
59263;SDS011;45030;42.720;23.344;2023-05-29T05:42:05;4.30;;;3.00;;
59263;SDS011;45030;42.720;23.344;2023-05-29T05:44:30;6.90;;;3.30;;
59263;SDS011;45030;42.720;23.344;2023-05-29T05:46:55;6.22;;;3.28;;
59263;SDS011;45030;42.720;23.344;2023-05-29T05:49:21;6.68;;;2.55;;
59263;SDS011;45030;42.720;23.344;2023-05-29T05:51:46;6.63;;;3.05;;
59263;SDS011;45030;42.720;23.344;2023-05-29T05:54:11;6.80;;;3.22;;
59263;SDS011;45030;42.720;23.344;2023-05-29T05:56:37;4.78;;;2.72;;
59263;SDS011;45030;42.720;23.344;2023-05-29T05:59:02;5.63;;;3.13;;
59263;SDS011;45030;42.720;23.344;2023-05-29T06:01:27;4.45;;;2.72;;
59263;SDS011;45030;42.720;23.344;2023-05-29T06:03:53;8.10;;;2.92;;
59263;SDS011;45030;42.720;23.344;2023-05-29T06:06:19;4.25;;;3.10;;
59263;SDS011;45030;42.720;23.344;2023-05-29T06:08:44;5.78;;;3.67;;
59263;SDS011;45030;42.720;23.344;2023-05-29T06:11:10;7.00;;;3.30;;
59263;SDS011;45030;42.720;23.344;2023-05-29T06:13:36;10.65;;;3.97;;
59263;SDS011;45030;42.720;23.344;2023-05-29T06:16:01;9.48;;;3.78;;
59263;SDS011;45030;42.720;23.344;2023-05-29T06:18:26;6.65;;;3.75;;
59263;SDS011;45030;42.720;23.344;2023-05-29T06:20:52;6.32;;;3.58;;
59263;SDS011;45030;42.720;23.344;2023-05-29T06:23:17;5.28;;;3.17;;
59263;SDS011;45030;42.720;23.344;2023-05-29T06:25:42;7.25;;;3.10;;
59263;SDS011;45030;42.720;23.344;2023-05-29T06:28:08;4.82;;;2.38;;
59263;SDS011;45030;42.720;23.344;2023-05-29T06:30:33;5.38;;;2.28;;
59263;SDS011;45030;42.720;23.344;2023-05-29T06:32:58;3.97;;;2.10;;
59263;SDS011;45030;42.720;23.344;2023-05-29T06:35:24;3.13;;;2.03;;
59263;SDS011;45030;42.720;23.344;2023-05-29T06:37:49;5.20;;;2.60;;
59263;SDS011;45030;42.720;23.344;2023-05-29T06:40:14;4.13;;;2.58;;
59263;SDS011;45030;42.720;23.344;2023-05-29T06:42:41;4.30;;;2.05;;
59263;SDS011;45030;42.720;23.344;2023-05-29T06:45:06;5.10;;;2.17;;
59263;SDS011;45030;42.720;23.344;2023-05-29T06:47:32;3.88;;;1.90;;
59263;SDS011;45030;42.720;23.344;2023-05-29T06:49:57;3.70;;;2.00;;
59263;SDS011;45030;42.720;23.344;2023-05-29T06:52:22;2.65;;;1.55;;
59263;SDS011;45030;42.720;23.344;2023-05-29T06:54:48;3.15;;;1.58;;
59263;SDS011;45030;42.720;23.344;2023-05-29T06:57:13;5.17;;;2.03;;
59263;SDS011;45030;42.720;23.344;2023-05-29T06:59:38;3.17;;;1.63;;
59263;SDS011;45030;42.720;23.344;2023-05-29T07:02:04;5.38;;;2.50;;
59263;SDS011;45030;42.720;23.344;2023-05-29T07:04:29;3.67;;;2.42;;
59263;SDS011;45030;42.720;23.344;2023-05-29T07:06:54;3.35;;;1.55;;
59263;SDS011;45030;42.720;23.344;2023-05-29T07:09:20;5.05;;;1.77;;
59263;SDS011;45030;42.720;23.344;2023-05-29T07:11:45;4.28;;;2.88;;
59263;SDS011;45030;42.720;23.344;2023-05-29T07:14:10;2.88;;;1.55;;
59263;SDS011;45030;42.720;23.344;2023-05-29T07:16:35;2.88;;;1.73;;
59263;SDS011;45030;42.720;23.344;2023-05-29T07:19:01;3.35;;;1.98;;
59263;SDS011;45030;42.720;23.344;2023-05-29T07:21:26;1.93;;;1.33;;
59263;SDS011;45030;42.720;23.344;2023-05-29T07:23:51;3.53;;;1.50;;
59263;SDS011;45030;42.720;23.344;2023-05-29T07:26:16;1.80;;;1.15;;
59263;SDS011;45030;42.720;23.344;2023-05-29T07:28:42;1.93;;;1.20;;
59263;SDS011;45030;42.720;23.344;2023-05-29T07:31:07;1.73;;;1.27;;
59263;SDS011;45030;42.720;23.344;2023-05-29T07:33:32;2.63;;;1.33;;
59263;SDS011;45030;42.720;23.344;2023-05-29T07:35:57;3.00;;;1.42;;
59263;SDS011;45030;42.720;23.344;2023-05-29T07:38:23;2.13;;;1.00;;
59263;SDS011;45030;42.720;23.344;2023-05-29T07:40:48;1.30;;;0.83;;
59263;SDS011;45030;42.720;23.344;2023-05-29T07:43:13;3.43;;;1.43;;
59263;SDS011;45030;42.720;23.344;2023-05-29T07:45:38;2.42;;;1.20;;
59263;SDS011;45030;42.720;23.344;2023-05-29T07:48:04;3.20;;;1.05;;
59263;SDS011;45030;42.720;23.344;2023-05-29T07:50:29;1.80;;;1.00;;
59263;SDS011;45030;42.720;23.344;2023-05-29T07:52:54;1.98;;;1.17;;
59263;SDS011;45030;42.720;23.344;2023-05-29T07:55:21;2.10;;;1.02;;
59263;SDS011;45030;42.720;23.344;2023-05-29T07:57:46;2.83;;;1.60;;
59263;SDS011;45030;42.720;23.344;2023-05-29T08:00:13;2.30;;;1.10;;
59263;SDS011;45030;42.720;23.344;2023-05-29T08:02:39;2.45;;;1.20;;
59263;SDS011;45030;42.720;23.344;2023-05-29T08:05:05;1.63;;;1.10;;
59263;SDS011;45030;42.720;23.344;2023-05-29T08:07:32;2.50;;;1.30;;
59263;SDS011;45030;42.720;23.344;2023-05-29T08:09:58;1.33;;;1.10;;
59263;SDS011;45030;42.720;23.344;2023-05-29T08:12:23;3.60;;;1.73;;
59263;SDS011;45030;42.720;23.344;2023-05-29T08:14:48;4.40;;;1.70;;
59263;SDS011;45030;42.720;23.344;2023-05-29T08:17:14;2.05;;;1.25;;
59263;SDS011;45030;42.720;23.344;2023-05-29T08:19:39;3.07;;;1.37;;
59263;SDS011;45030;42.720;23.344;2023-05-29T08:22:04;3.17;;;1.23;;
59263;SDS011;45030;42.720;23.344;2023-05-29T08:24:30;2.75;;;1.40;;
59263;SDS011;45030;42.720;23.344;2023-05-29T08:26:56;2.05;;;1.30;;
59263;SDS011;45030;42.720;23.344;2023-05-29T08:29:21;3.47;;;1.75;;
59263;SDS011;45030;42.720;23.344;2023-05-29T08:31:46;2.85;;;1.40;;
59263;SDS011;45030;42.720;23.344;2023-05-29T08:34:11;4.07;;;1.80;;
59263;SDS011;45030;42.720;23.344;2023-05-29T08:36:37;4.30;;;1.52;;
59263;SDS011;45030;42.720;23.344;2023-05-29T08:39:02;1.85;;;1.27;;
59263;SDS011;45030;42.720;23.344;2023-05-29T08:43:54;2.45;;;1.63;;
59263;SDS011;45030;42.720;23.344;2023-05-29T08:46:19;3.75;;;1.67;;
59263;SDS011;45030;42.720;23.344;2023-05-29T08:48:47;2.63;;;1.70;;
59263;SDS011;45030;42.720;23.344;2023-05-29T08:51:13;3.80;;;1.73;;
59263;SDS011;45030;42.720;23.344;2023-05-29T08:53:38;5.72;;;1.50;;
59263;SDS011;45030;42.720;23.344;2023-05-29T08:56:05;2.08;;;1.50;;
59263;SDS011;45030;42.720;23.344;2023-05-29T08:58:30;2.72;;;1.77;;
59263;SDS011;45030;42.720;23.344;2023-05-29T09:00:56;4.63;;;1.70;;
59263;SDS011;45030;42.720;23.344;2023-05-29T09:03:21;2.90;;;1.70;;
59263;SDS011;45030;42.720;23.344;2023-05-29T09:05:47;1.85;;;1.30;;
59263;SDS011;45030;42.720;23.344;2023-05-29T09:08:13;2.30;;;1.40;;
59263;SDS011;45030;42.720;23.344;2023-05-29T09:10:40;2.38;;;2.00;;
59263;SDS011;45030;42.720;23.344;2023-05-29T09:13:07;2.72;;;2.00;;
59263;SDS011;45030;42.720;23.344;2023-05-29T09:15:34;3.90;;;1.83;;
59263;SDS011;45030;42.720;23.344;2023-05-29T09:17:59;3.28;;;1.77;;
59263;SDS011;45030;42.720;23.344;2023-05-29T09:20:25;4.95;;;2.70;;
59263;SDS011;45030;42.720;23.344;2023-05-29T09:25:20;5.25;;;1.80;;
59263;SDS011;45030;42.720;23.344;2023-05-29T09:27:47;2.63;;;1.80;;
59263;SDS011;45030;42.720;23.344;2023-05-29T09:30:15;4.03;;;2.00;;
59263;SDS011;45030;42.720;23.344;2023-05-29T09:32:55;3.40;;;1.67;;
59263;SDS011;45030;42.720;23.344;2023-05-29T09:35:20;2.00;;;1.40;;
59263;SDS011;45030;42.720;23.344;2023-05-29T09:37:46;10.55;;;3.40;;
59263;SDS011;45030;42.720;23.344;2023-05-29T09:40:11;3.70;;;2.07;;
59263;SDS011;45030;42.720;23.344;2023-05-29T09:42:37;2.90;;;1.60;;
59263;SDS011;45030;42.720;23.344;2023-05-29T09:45:02;4.30;;;1.73;;
59263;SDS011;45030;42.720;23.344;2023-05-29T09:47:29;12.30;;;3.30;;
59263;SDS011;45030;42.720;23.344;2023-05-29T09:49:57;11.35;;;2.28;;
59263;SDS011;45030;42.720;23.344;2023-05-29T09:52:25;4.88;;;1.52;;
59263;SDS011;45030;42.720;23.344;2023-05-29T09:54:52;3.28;;;1.65;;
59263;SDS011;45030;42.720;23.344;2023-05-29T09:57:18;2.20;;;1.60;;
59263;SDS011;45030;42.720;23.344;2023-05-29T09:59:43;4.57;;;1.45;;
59263;SDS011;45030;42.720;23.344;2023-05-29T10:02:16;6.78;;;2.33;;
59263;SDS011;45030;42.720;23.344;2023-05-29T10:04:41;5.47;;;1.88;;
59263;SDS011;45030;42.720;23.344;2023-05-29T10:07:11;3.20;;;1.60;;
59263;SDS011;45030;42.720;23.344;2023-05-29T10:09:44;2.35;;;1.52;;
59263;SDS011;45030;42.720;23.344;2023-05-29T10:12:11;4.13;;;1.85;;
59263;SDS011;45030;42.720;23.344;2023-05-29T10:14:36;1.77;;;1.25;;
59263;SDS011;45030;42.720;23.344;2023-05-29T10:17:02;4.28;;;1.77;;
59263;SDS011;45030;42.720;23.344;2023-05-29T10:19:31;3.10;;;1.58;;
59263;SDS011;45030;42.720;23.344;2023-05-29T10:21:57;2.33;;;1.33;;
59263;SDS011;45030;42.720;23.344;2023-05-29T10:24:22;2.78;;;1.70;;
59263;SDS011;45030;42.720;23.344;2023-05-29T10:26:48;2.40;;;1.48;;
59263;SDS011;45030;42.720;23.344;2023-05-29T10:29:17;1.88;;;1.35;;
59263;SDS011;45030;42.720;23.344;2023-05-29T10:34:45;3.88;;;1.67;;
59263;SDS011;45030;42.720;23.344;2023-05-29T10:37:18;2.63;;;1.30;;
59263;SDS011;45030;42.720;23.344;2023-05-29T10:39:46;2.33;;;1.30;;
59263;SDS011;45030;42.720;23.344;2023-05-29T10:44:55;2.03;;;1.50;;
59263;SDS011;45030;42.720;23.344;2023-05-29T10:47:23;2.67;;;1.80;;
59263;SDS011;45030;42.720;23.344;2023-05-29T10:49:50;2.78;;;1.80;;
59263;SDS011;45030;42.720;23.344;2023-05-29T10:52:18;3.25;;;1.30;;
59263;SDS011;45030;42.720;23.344;2023-05-29T10:54:53;3.55;;;1.60;;
59263;SDS011;45030;42.720;23.344;2023-05-29T10:57:22;6.45;;;1.90;;
59263;SDS011;45030;42.720;23.344;2023-05-29T10:59:48;8.43;;;2.30;;
59263;SDS011;45030;42.720;23.344;2023-05-29T11:02:19;4.53;;;1.80;;
59263;SDS011;45030;42.720;23.344;2023-05-29T11:05:03;3.45;;;1.67;;
59263;SDS011;45030;42.720;23.344;2023-05-29T11:07:32;4.03;;;2.55;;
59263;SDS011;45030;42.720;23.344;2023-05-29T11:10:10;1.90;;;1.13;;
59263;SDS011;45030;42.720;23.344;2023-05-29T11:12:35;2.60;;;1.60;;
59263;SDS011;45030;42.720;23.344;2023-05-29T11:15:20;14.73;;;2.55;;
59263;SDS011;45030;42.720;23.344;2023-05-29T11:17:45;7.13;;;2.17;;
59263;SDS011;45030;42.720;23.344;2023-05-29T11:25:05;4.17;;;1.47;;
59263;SDS011;45030;42.720;23.344;2023-05-29T11:27:31;2.42;;;1.65;;
59263;SDS011;45030;42.720;23.344;2023-05-29T11:29:57;3.25;;;2.13;;
59263;SDS011;45030;42.720;23.344;2023-05-29T11:32:22;4.10;;;1.98;;
59263;SDS011;45030;42.720;23.344;2023-05-29T11:34:50;2.05;;;1.42;;
59263;SDS011;45030;42.720;23.344;2023-05-29T11:37:17;1.90;;;1.40;;
59263;SDS011;45030;42.720;23.344;2023-05-29T11:39:42;2.30;;;1.90;;
59263;SDS011;45030;42.720;23.344;2023-05-29T11:42:07;2.83;;;1.80;;
59263;SDS011;45030;42.720;23.344;2023-05-29T11:44:33;4.00;;;1.90;;
59263;SDS011;45030;42.720;23.344;2023-05-29T11:47:05;4.33;;;1.90;;
59263;SDS011;45030;42.720;23.344;2023-05-29T11:49:34;4.37;;;1.80;;
59263;SDS011;45030;42.720;23.344;2023-05-29T11:52:09;3.10;;;1.90;;
59263;SDS011;45030;42.720;23.344;2023-05-29T11:54:34;2.90;;;2.20;;
59263;SDS011;45030;42.720;23.344;2023-05-29T11:57:00;4.53;;;1.90;;
59263;SDS011;45030;42.720;23.344;2023-05-29T11:59:28;3.40;;;2.17;;
59263;SDS011;45030;42.720;23.344;2023-05-29T12:01:53;10.27;;;2.30;;
59263;SDS011;45030;42.720;23.344;2023-05-29T12:04:18;3.90;;;2.10;;
59263;SDS011;45030;42.720;23.344;2023-05-29T12:06:44;3.90;;;1.75;;
59263;SDS011;45030;42.720;23.344;2023-05-29T12:09:09;4.40;;;1.80;;
59263;SDS011;45030;42.720;23.344;2023-05-29T12:11:49;7.10;;;2.13;;
59263;SDS011;45030;42.720;23.344;2023-05-29T12:14:14;3.58;;;1.55;;
59263;SDS011;45030;42.720;23.344;2023-05-29T12:16:39;2.60;;;1.50;;
59263;SDS011;45030;42.720;23.344;2023-05-29T12:19:05;1.80;;;1.45;;
59263;SDS011;45030;42.720;23.344;2023-05-29T12:21:30;3.60;;;1.35;;
59263;SDS011;45030;42.720;23.344;2023-05-29T12:23:55;3.00;;;1.40;;
59263;SDS011;45030;42.720;23.344;2023-05-29T12:26:23;3.00;;;1.20;;
59263;SDS011;45030;42.720;23.344;2023-05-29T12:28:50;4.05;;;1.33;;
59263;SDS011;45030;42.720;23.344;2023-05-29T12:31:29;2.97;;;1.48;;
59263;SDS011;45030;42.720;23.344;2023-05-29T12:34:01;3.72;;;1.30;;
59263;SDS011;45030;42.720;23.344;2023-05-29T12:36:27;2.50;;;1.48;;
59263;SDS011;45030;42.720;23.344;2023-05-29T12:38:52;2.90;;;1.83;;
59263;SDS011;45030;42.720;23.344;2023-05-29T12:41:21;3.92;;;1.50;;
59263;SDS011;45030;42.720;23.344;2023-05-29T12:43:46;2.58;;;1.38;;
59263;SDS011;45030;42.720;23.344;2023-05-29T12:46:12;2.17;;;1.47;;
59263;SDS011;45030;42.720;23.344;2023-05-29T12:48:38;3.53;;;1.60;;
59263;SDS011;45030;42.720;23.344;2023-05-29T12:51:07;3.75;;;2.20;;
59263;SDS011;45030;42.720;23.344;2023-05-29T12:53:33;3.20;;;1.83;;
59263;SDS011;45030;42.720;23.344;2023-05-29T12:55:58;4.50;;;2.40;;
59263;SDS011;45030;42.720;23.344;2023-05-29T12:58:23;2.88;;;2.03;;
59263;SDS011;45030;42.720;23.344;2023-05-29T13:00:51;3.88;;;2.10;;
59263;SDS011;45030;42.720;23.344;2023-05-29T13:03:20;6.93;;;2.63;;
59263;SDS011;45030;42.720;23.344;2023-05-29T13:05:46;3.33;;;2.10;;
59263;SDS011;45030;42.720;23.344;2023-05-29T13:08:11;3.20;;;1.70;;
59263;SDS011;45030;42.720;23.344;2023-05-29T13:10:36;2.47;;;1.77;;
59263;SDS011;45030;42.720;23.344;2023-05-29T13:13:02;3.13;;;1.98;;
59263;SDS011;45030;42.720;23.344;2023-05-29T13:15:27;2.42;;;1.65;;
59263;SDS011;45030;42.720;23.344;2023-05-29T13:17:53;3.97;;;1.90;;
59263;SDS011;45030;42.720;23.344;2023-05-29T13:20:18;4.55;;;2.15;;
59263;SDS011;45030;42.720;23.344;2023-05-29T13:22:44;3.47;;;2.30;;
59263;SDS011;45030;42.720;23.344;2023-05-29T13:25:10;3.08;;;1.50;;
59263;SDS011;45030;42.720;23.344;2023-05-29T13:27:36;2.13;;;1.38;;
59263;SDS011;45030;42.720;23.344;2023-05-29T13:30:02;2.15;;;1.10;;
59263;SDS011;45030;42.720;23.344;2023-05-29T13:32:28;2.40;;;1.30;;
59263;SDS011;45030;42.720;23.344;2023-05-29T13:34:53;2.50;;;1.30;;
59263;SDS011;45030;42.720;23.344;2023-05-29T13:37:19;1.70;;;0.88;;
59263;SDS011;45030;42.720;23.344;2023-05-29T13:39:44;5.45;;;1.00;;
59263;SDS011;45030;42.720;23.344;2023-05-29T13:42:09;2.30;;;1.17;;
59263;SDS011;45030;42.720;23.344;2023-05-29T13:44:36;2.10;;;1.10;;
59263;SDS011;45030;42.720;23.344;2023-05-29T13:47:01;1.58;;;0.80;;
59263;SDS011;45030;42.720;23.344;2023-05-29T13:49:27;1.70;;;0.90;;
59263;SDS011;45030;42.720;23.344;2023-05-29T13:51:52;3.17;;;0.80;;
59263;SDS011;45030;42.720;23.344;2023-05-29T13:54:17;1.77;;;0.90;;
59263;SDS011;45030;42.720;23.344;2023-05-29T13:56:43;1.63;;;1.08;;
59263;SDS011;45030;42.720;23.344;2023-05-29T13:59:08;2.15;;;0.98;;
59263;SDS011;45030;42.720;23.344;2023-05-29T14:01:33;0.73;;;0.50;;
59263;SDS011;45030;42.720;23.344;2023-05-29T14:03:59;1.20;;;0.70;;
59263;SDS011;45030;42.720;23.344;2023-05-29T14:06:25;2.72;;;1.10;;
59263;SDS011;45030;42.720;23.344;2023-05-29T14:08:51;3.35;;;1.38;;
59263;SDS011;45030;42.720;23.344;2023-05-29T14:11:16;5.68;;;1.65;;
59263;SDS011;45030;42.720;23.344;2023-05-29T14:13:41;1.92;;;1.30;;
59263;SDS011;45030;42.720;23.344;2023-05-29T14:16:06;2.20;;;1.13;;
59263;SDS011;45030;42.720;23.344;2023-05-29T14:18:32;2.80;;;1.20;;
59263;SDS011;45030;42.720;23.344;2023-05-29T14:20:57;2.08;;;1.17;;
59263;SDS011;45030;42.720;23.344;2023-05-29T14:23:22;1.40;;;0.68;;
59263;SDS011;45030;42.720;23.344;2023-05-29T14:25:47;3.30;;;1.40;;
59263;SDS011;45030;42.720;23.344;2023-05-29T14:28:13;2.45;;;0.95;;
59263;SDS011;45030;42.720;23.344;2023-05-29T14:30:38;5.20;;;1.23;;
59263;SDS011;45030;42.720;23.344;2023-05-29T14:33:03;1.13;;;0.70;;
59263;SDS011;45030;42.720;23.344;2023-05-29T14:35:29;3.05;;;1.00;;
59263;SDS011;45030;42.720;23.344;2023-05-29T14:37:54;1.42;;;0.90;;
59263;SDS011;45030;42.720;23.344;2023-05-29T14:40:19;1.33;;;0.97;;
59263;SDS011;45030;42.720;23.344;2023-05-29T14:42:44;2.05;;;1.00;;
59263;SDS011;45030;42.720;23.344;2023-05-29T14:45:10;1.85;;;0.90;;
59263;SDS011;45030;42.720;23.344;2023-05-29T14:47:35;2.92;;;1.15;;
59263;SDS011;45030;42.720;23.344;2023-05-29T14:50:00;1.67;;;0.90;;